sensor_id;sensor_type;location;lat;lon;timestamp;pressure;altitude;pressure_sealevel;temperature;humidity
30636;BME280;17400;52.392;9.750;2022-08-03T04:02:28;100888.28;;;21.64;91.13
30636;BME280;17400;52.392;9.750;2022-08-03T04:04:56;100891.00;;;21.59;91.57
30636;BME280;17400;52.392;9.750;2022-08-03T04:07:47;100885.47;;;21.59;91.50
30636;BME280;17400;52.392;9.750;2022-08-03T04:10:38;100887.16;;;21.60;91.73
30636;BME280;17400;52.392;9.750;2022-08-03T04:13:30;100892.34;;;21.56;91.85
30636;BME280;17400;52.392;9.750;2022-08-03T04:16:00;100891.53;;;21.56;91.43
30636;BME280;17400;52.392;9.750;2022-08-03T04:18:31;100896.50;;;21.59;91.85
30636;BME280;17400;52.392;9.750;2022-08-03T04:21:02;100891.28;;;21.62;90.80
30636;BME280;17400;52.392;9.750;2022-08-03T04:23:33;100898.16;;;21.60;91.06
30636;BME280;17400;52.392;9.750;2022-08-03T04:26:04;100904.53;;;21.60;91.15
30636;BME280;17400;52.392;9.750;2022-08-03T04:28:36;100908.09;;;21.61;91.36
30636;BME280;17400;52.392;9.750;2022-08-03T04:31:06;100911.13;;;21.59;91.63
30636;BME280;17400;52.392;9.750;2022-08-03T04:33:37;100902.31;;;21.62;91.13
30636;BME280;17400;52.392;9.750;2022-08-03T04:36:06;100916.34;;;21.61;91.17
30636;BME280;17400;52.392;9.750;2022-08-03T04:38:38;100910.31;;;21.64;91.31
30636;BME280;17400;52.392;9.750;2022-08-03T04:41:10;100916.34;;;21.61;91.37
30636;BME280;17400;52.392;9.750;2022-08-03T04:43:38;100909.50;;;21.63;90.97
30636;BME280;17400;52.392;9.750;2022-08-03T04:46:07;100914.72;;;21.65;91.13
30636;BME280;17400;52.392;9.750;2022-08-03T04:48:38;100915.31;;;21.67;90.46
30636;BME280;17400;52.392;9.750;2022-08-03T04:51:10;100917.22;;;21.67;91.43
30636;BME280;17400;52.392;9.750;2022-08-03T04:53:38;100923.56;;;21.72;90.63
30636;BME280;17400;52.392;9.750;2022-08-03T04:56:07;100914.25;;;21.78;90.49
30636;BME280;17400;52.392;9.750;2022-08-03T04:58:34;100910.13;;;21.81;90.90
30636;BME280;17400;52.392;9.750;2022-08-03T05:01:02;100915.09;;;21.84;91.30
30636;BME280;17400;52.392;9.750;2022-08-03T05:03:30;100922.28;;;21.85;91.17
30636;BME280;17400;52.392;9.750;2022-08-03T05:05:59;100921.44;;;21.85;90.60
30636;BME280;17400;52.392;9.750;2022-08-03T05:08:37;100915.41;;;21.88;90.60
30636;BME280;17400;52.392;9.750;2022-08-03T05:11:12;100919.25;;;21.92;90.18
30636;BME280;17400;52.392;9.750;2022-08-03T05:13:40;100916.00;;;21.95;90.89
30636;BME280;17400;52.392;9.750;2022-08-03T05:16:08;100923.72;;;21.98;90.63
30636;BME280;17400;52.392;9.750;2022-08-03T05:18:35;100920.69;;;22.00;91.15
30636;BME280;17400;52.392;9.750;2022-08-03T05:21:04;100919.03;;;22.04;89.85
30636;BME280;17400;52.392;9.750;2022-08-03T05:23:32;100911.06;;;22.02;90.37
30636;BME280;17400;52.392;9.750;2022-08-03T05:25:59;100915.19;;;22.05;90.46
30636;BME280;17400;52.392;9.750;2022-08-03T05:28:27;100921.81;;;22.09;90.20
30636;BME280;17400;52.392;9.750;2022-08-03T05:30:55;100924.88;;;22.12;89.95
30636;BME280;17400;52.392;9.750;2022-08-03T05:33:23;100913.56;;;22.14;89.75
30636;BME280;17400;52.392;9.750;2022-08-03T05:35:51;100910.53;;;22.16;89.74
30636;BME280;17400;52.392;9.750;2022-08-03T05:38:31;100905.31;;;22.19;89.14
30636;BME280;17400;52.392;9.750;2022-08-03T05:41:01;100913.31;;;22.21;89.12
30636;BME280;17400;52.392;9.750;2022-08-03T05:43:50;100916.38;;;22.24;88.75
30636;BME280;17400;52.392;9.750;2022-08-03T05:46:17;100910.03;;;22.29;88.66
30636;BME280;17400;52.392;9.750;2022-08-03T05:48:46;100907.28;;;22.34;88.58
30636;BME280;17400;52.392;9.750;2022-08-03T05:51:14;100904.59;;;22.39;88.29
30636;BME280;17400;52.392;9.750;2022-08-03T05:53:43;100907.91;;;22.41;88.78
30636;BME280;17400;52.392;9.750;2022-08-03T05:56:11;100909.53;;;22.42;88.06
30636;BME280;17400;52.392;9.750;2022-08-03T05:58:43;100910.13;;;22.50;88.35
30636;BME280;17400;52.392;9.750;2022-08-03T06:01:11;100906.53;;;22.54;87.86
30636;BME280;17400;52.392;9.750;2022-08-03T06:03:39;100904.63;;;22.60;87.72
30636;BME280;17400;52.392;9.750;2022-08-03T06:06:06;100910.72;;;22.67;87.60
30636;BME280;17400;52.392;9.750;2022-08-03T06:08:34;100911.00;;;22.66;87.14
30636;BME280;17400;52.392;9.750;2022-08-03T06:11:03;100904.91;;;22.63;87.74
30636;BME280;17400;52.392;9.750;2022-08-03T06:13:31;100904.63;;;22.60;88.27
30636;BME280;17400;52.392;9.750;2022-08-03T06:15:59;100904.66;;;22.65;87.72
30636;BME280;17400;52.392;9.750;2022-08-03T06:18:27;100907.16;;;22.77;87.10
30636;BME280;17400;52.392;9.750;2022-08-03T06:20:55;100904.38;;;22.87;86.96
30636;BME280;17400;52.392;9.750;2022-08-03T06:23:37;100904.66;;;22.96;87.15
30636;BME280;17400;52.392;9.750;2022-08-03T06:26:23;100908.00;;;22.98;86.80
30636;BME280;17400;52.392;9.750;2022-08-03T06:28:51;100912.38;;;23.09;86.60
30636;BME280;17400;52.392;9.750;2022-08-03T06:31:24;100904.13;;;23.20;85.46
30636;BME280;17400;52.392;9.750;2022-08-03T06:34:00;100908.00;;;23.34;84.59
30636;BME280;17400;52.392;9.750;2022-08-03T06:36:48;100913.75;;;23.53;83.62
30636;BME280;17400;52.392;9.750;2022-08-03T06:39:18;100911.53;;;23.60;82.87
30636;BME280;17400;52.392;9.750;2022-08-03T06:41:51;100912.91;;;23.63;82.98
30636;BME280;17400;52.392;9.750;2022-08-03T06:44:18;100915.91;;;23.67;82.47
30636;BME280;17400;52.392;9.750;2022-08-03T06:46:47;100921.13;;;23.78;82.31
30636;BME280;17400;52.392;9.750;2022-08-03T06:49:14;100920.03;;;23.90;81.45
30636;BME280;17400;52.392;9.750;2022-08-03T06:51:42;100916.19;;;23.91;80.77
30636;BME280;17400;52.392;9.750;2022-08-03T06:54:30;100926.66;;;23.84;81.50
30636;BME280;17400;52.392;9.750;2022-08-03T06:57:00;100929.97;;;23.86;82.04
30636;BME280;17400;52.392;9.750;2022-08-03T06:59:27;100933.88;;;23.90;81.66
30636;BME280;17400;52.392;9.750;2022-08-03T07:02:15;100936.34;;;23.91;81.54
30636;BME280;17400;52.392;9.750;2022-08-03T07:04:45;100929.69;;;24.03;80.50
30636;BME280;17400;52.392;9.750;2022-08-03T07:07:13;100923.00;;;24.04;80.04
30636;BME280;17400;52.392;9.750;2022-08-03T07:09:40;100931.00;;;24.10;80.12
30636;BME280;17400;52.392;9.750;2022-08-03T07:12:25;100926.00;;;24.18;79.95
30636;BME280;17400;52.392;9.750;2022-08-03T07:14:53;100920.16;;;24.24;79.34
30636;BME280;17400;52.392;9.750;2022-08-03T07:17:26;100928.13;;;24.36;79.81
30636;BME280;17400;52.392;9.750;2022-08-03T07:19:54;100936.13;;;24.38;79.80
30636;BME280;17400;52.392;9.750;2022-08-03T07:22:22;100928.41;;;24.40;79.49
30636;BME280;17400;52.392;9.750;2022-08-03T07:24:49;100935.56;;;24.41;77.56
30636;BME280;17400;52.392;9.750;2022-08-03T07:27:17;100931.69;;;24.42;76.66
30636;BME280;17400;52.392;9.750;2022-08-03T07:29:46;100933.06;;;24.44;77.32
30636;BME280;17400;52.392;9.750;2022-08-03T07:32:13;100933.03;;;24.50;77.32
30636;BME280;17400;52.392;9.750;2022-08-03T07:34:42;100933.28;;;24.58;77.82
30636;BME280;17400;52.392;9.750;2022-08-03T07:37:10;100939.03;;;24.67;77.23
30636;BME280;17400;52.392;9.750;2022-08-03T07:39:37;100942.03;;;24.76;77.54
30636;BME280;17400;52.392;9.750;2022-08-03T07:42:05;100937.50;;;24.90;77.19
30636;BME280;17400;52.392;9.750;2022-08-03T07:44:33;100932.72;;;25.01;76.24
30636;BME280;17400;52.392;9.750;2022-08-03T07:47:02;100940.97;;;25.06;76.29
30636;BME280;17400;52.392;9.750;2022-08-03T07:49:31;100940.16;;;25.06;76.49
30636;BME280;17400;52.392;9.750;2022-08-03T07:51:59;100945.13;;;25.09;75.59
30636;BME280;17400;52.392;9.750;2022-08-03T07:54:44;100937.84;;;25.18;73.97
30636;BME280;17400;52.392;9.750;2022-08-03T07:57:12;100934.97;;;25.28;74.61
30636;BME280;17400;52.392;9.750;2022-08-03T07:59:39;100937.44;;;25.35;74.54
30636;BME280;17400;52.392;9.750;2022-08-03T08:02:29;100942.63;;;25.42;71.78
30636;BME280;17400;52.392;9.750;2022-08-03T08:04:56;100932.88;;;25.50;72.58
30636;BME280;17400;52.392;9.750;2022-08-03T08:07:30;100940.28;;;25.54;72.43
30636;BME280;17400;52.392;9.750;2022-08-03T08:09:58;100938.59;;;25.58;71.25
30636;BME280;17400;52.392;9.750;2022-08-03T08:12:26;100936.06;;;25.62;72.38
30636;BME280;17400;52.392;9.750;2022-08-03T08:14:53;100931.28;;;25.68;73.30
30636;BME280;17400;52.392;9.750;2022-08-03T08:17:21;100935.34;;;25.75;72.91
30636;BME280;17400;52.392;9.750;2022-08-03T08:19:50;100927.28;;;25.79;73.49
30636;BME280;17400;52.392;9.750;2022-08-03T08:22:18;100931.88;;;25.89;70.87
30636;BME280;17400;52.392;9.750;2022-08-03T08:24:56;100930.94;;;25.99;72.57
30636;BME280;17400;52.392;9.750;2022-08-03T08:27:24;100928.66;;;26.06;71.01
30636;BME280;17400;52.392;9.750;2022-08-03T08:29:52;100923.78;;;26.17;69.36
30636;BME280;17400;52.392;9.750;2022-08-03T08:32:28;100924.56;;;26.22;68.15
30636;BME280;17400;52.392;9.750;2022-08-03T08:34:57;100929.22;;;26.27;68.29
30636;BME280;17400;52.392;9.750;2022-08-03T08:37:24;100924.72;;;26.31;67.60
30636;BME280;17400;52.392;9.750;2022-08-03T08:39:52;100921.88;;;26.36;67.43
30636;BME280;17400;52.392;9.750;2022-08-03T08:42:20;100921.88;;;26.36;68.70
30636;BME280;17400;52.392;9.750;2022-08-03T08:44:48;100929.63;;;26.39;67.99
30636;BME280;17400;52.392;9.750;2022-08-03T08:47:16;100925.03;;;26.49;66.92
30636;BME280;17400;52.392;9.750;2022-08-03T08:49:47;100930.97;;;26.61;65.57
30636;BME280;17400;52.392;9.750;2022-08-03T08:52:38;100920.81;;;26.70;65.86
30636;BME280;17400;52.392;9.750;2022-08-03T08:55:10;100927.47;;;26.74;62.97
30636;BME280;17400;52.392;9.750;2022-08-03T08:57:45;100931.19;;;26.84;62.14
30636;BME280;17400;52.392;9.750;2022-08-03T09:00:14;100931.44;;;26.87;62.02
30636;BME280;17400;52.392;9.750;2022-08-03T09:02:43;100927.16;;;26.95;62.78
30636;BME280;17400;52.392;9.750;2022-08-03T09:05:12;100917.88;;;27.00;61.76
30636;BME280;17400;52.392;9.750;2022-08-03T09:07:43;100923.06;;;27.06;61.57
30636;BME280;17400;52.392;9.750;2022-08-03T09:10:15;100920.81;;;27.08;59.45
30636;BME280;17400;52.392;9.750;2022-08-03T09:12:46;100919.16;;;27.07;60.83
30636;BME280;17400;52.392;9.750;2022-08-03T09:15:18;100908.44;;;27.15;61.10
30636;BME280;17400;52.392;9.750;2022-08-03T09:17:46;100908.91;;;27.22;59.90
30636;BME280;17400;52.392;9.750;2022-08-03T09:20:18;100910.97;;;27.30;60.11
30636;BME280;17400;52.392;9.750;2022-08-03T09:22:55;100906.97;;;27.36;56.83
30636;BME280;17400;52.392;9.750;2022-08-03T09:25:30;100908.34;;;27.39;57.22
30636;BME280;17400;52.392;9.750;2022-08-03T09:28:07;100911.94;;;27.39;56.14
30636;BME280;17400;52.392;9.750;2022-08-03T09:30:37;100915.16;;;27.47;56.60
30636;BME280;17400;52.392;9.750;2022-08-03T09:33:07;100911.13;;;27.53;55.98
30636;BME280;17400;52.392;9.750;2022-08-03T09:35:39;100913.50;;;27.59;56.49
30636;BME280;17400;52.392;9.750;2022-08-03T09:38:21;100909.19;;;27.67;54.73
30636;BME280;17400;52.392;9.750;2022-08-03T09:40:52;100906.94;;;27.69;54.20
30636;BME280;17400;52.392;9.750;2022-08-03T09:43:25;100909.59;;;27.60;54.14
30636;BME280;17400;52.392;9.750;2022-08-03T09:46:01;100901.56;;;27.59;55.32
30636;BME280;17400;52.392;9.750;2022-08-03T09:48:30;100910.41;;;27.61;56.11
30636;BME280;17400;52.392;9.750;2022-08-03T09:50:59;100900.94;;;27.62;56.35
30636;BME280;17400;52.392;9.750;2022-08-03T09:53:50;100910.41;;;27.61;57.03
30636;BME280;17400;52.392;9.750;2022-08-03T09:56:40;100907.44;;;27.71;55.52
30636;BME280;17400;52.392;9.750;2022-08-03T09:59:08;100901.78;;;27.76;54.97
30636;BME280;17400;52.392;9.750;2022-08-03T10:01:36;100908.78;;;27.88;54.23
30636;BME280;17400;52.392;9.750;2022-08-03T10:04:14;100906.81;;;27.88;54.43
30636;BME280;17400;52.392;9.750;2022-08-03T10:06:43;100896.81;;;27.87;53.47
30636;BME280;17400;52.392;9.750;2022-08-03T10:09:14;100896.22;;;27.90;53.83
30636;BME280;17400;52.392;9.750;2022-08-03T10:11:43;100899.72;;;27.96;53.83
30636;BME280;17400;52.392;9.750;2022-08-03T10:14:12;100896.63;;;27.98;54.09
30636;BME280;17400;52.392;9.750;2022-08-03T10:16:45;100898.50;;;28.02;53.12
30636;BME280;17400;52.392;9.750;2022-08-03T10:19:14;100892.00;;;28.07;52.72
30636;BME280;17400;52.392;9.750;2022-08-03T10:21:52;100898.25;;;28.13;52.04
30636;BME280;17400;52.392;9.750;2022-08-03T10:24:25;100904.34;;;28.15;52.89
30636;BME280;17400;52.392;9.750;2022-08-03T10:27:00;100899.09;;;28.13;52.88
30636;BME280;17400;52.392;9.750;2022-08-03T10:29:32;100895.06;;;28.19;52.35
30636;BME280;17400;52.392;9.750;2022-08-03T10:32:03;100888.34;;;28.20;53.33
30636;BME280;17400;52.392;9.750;2022-08-03T10:34:36;100886.22;;;28.17;53.52
30636;BME280;17400;52.392;9.750;2022-08-03T10:37:11;100879.84;;;28.17;52.77
30636;BME280;17400;52.392;9.750;2022-08-03T10:39:43;100876.72;;;28.18;52.75
30636;BME280;17400;52.392;9.750;2022-08-03T10:42:23;100880.22;;;28.24;53.34
30636;BME280;17400;52.392;9.750;2022-08-03T10:45:02;100875.44;;;28.38;52.00
30636;BME280;17400;52.392;9.750;2022-08-03T10:47:31;100875.94;;;28.40;51.58
30636;BME280;17400;52.392;9.750;2022-08-03T10:50:00;100877.09;;;28.39;51.18
30636;BME280;17400;52.392;9.750;2022-08-03T10:52:28;100874.47;;;28.43;51.44
30636;BME280;17400;52.392;9.750;2022-08-03T10:55:29;100878.72;;;28.40;52.07
30636;BME280;17400;52.392;9.750;2022-08-03T10:58:14;100864.63;;;28.37;51.26
30636;BME280;17400;52.392;9.750;2022-08-03T11:00:56;100866.00;;;28.48;51.17
30636;BME280;17400;52.392;9.750;2022-08-03T11:03:24;100865.19;;;28.48;50.76
30636;BME280;17400;52.392;9.750;2022-08-03T11:05:52;100874.69;;;28.47;51.31
30636;BME280;17400;52.392;9.750;2022-08-03T11:08:31;100868.69;;;28.53;50.57
30636;BME280;17400;52.392;9.750;2022-08-03T11:11:26;100866.47;;;28.64;49.70
30636;BME280;17400;52.392;9.750;2022-08-03T11:14:00;100864.97;;;28.58;49.81
30636;BME280;17400;52.392;9.750;2022-08-03T11:16:31;100861.00;;;28.59;49.70
30636;BME280;17400;52.392;9.750;2022-08-03T11:19:03;100852.16;;;28.57;49.54
30636;BME280;17400;52.392;9.750;2022-08-03T11:21:56;100857.75;;;28.57;50.54
30636;BME280;17400;52.392;9.750;2022-08-03T11:24:55;100863.09;;;28.67;51.00
30636;BME280;17400;52.392;9.750;2022-08-03T11:27:36;100857.28;;;28.78;50.44
30636;BME280;17400;52.392;9.750;2022-08-03T11:30:07;100855.38;;;28.87;49.93
30636;BME280;17400;52.392;9.750;2022-08-03T11:32:52;100855.03;;;28.88;49.37
30636;BME280;17400;52.392;9.750;2022-08-03T11:35:22;100854.91;;;28.94;49.23
30636;BME280;17400;52.392;9.750;2022-08-03T11:38:04;100840.94;;;29.16;48.91
30636;BME280;17400;52.392;9.750;2022-08-03T11:40:34;100858.22;;;29.27;48.62
30636;BME280;17400;52.392;9.750;2022-08-03T11:43:06;100846.09;;;29.32;48.49
30636;BME280;17400;52.392;9.750;2022-08-03T11:45:35;100849.44;;;29.42;48.44
30636;BME280;17400;52.392;9.750;2022-08-03T11:48:13;100843.56;;;29.53;48.20
30636;BME280;17400;52.392;9.750;2022-08-03T11:50:41;100840.16;;;29.65;46.99
30636;BME280;17400;52.392;9.750;2022-08-03T11:53:14;100838.31;;;29.91;45.61
30636;BME280;17400;52.392;9.750;2022-08-03T11:55:43;100848.97;;;29.98;46.04
30636;BME280;17400;52.392;9.750;2022-08-03T11:58:18;100847.31;;;29.97;45.28
30636;BME280;17400;52.392;9.750;2022-08-03T12:01:06;100850.44;;;30.04;45.80
30636;BME280;17400;52.392;9.750;2022-08-03T12:03:35;100845.19;;;30.03;45.27
30636;BME280;17400;52.392;9.750;2022-08-03T12:06:07;100843.41;;;30.16;44.96
30636;BME280;17400;52.392;9.750;2022-08-03T12:08:35;100840.13;;;30.22;44.48
30636;BME280;17400;52.392;9.750;2022-08-03T12:11:05;100843.41;;;30.33;44.31
30636;BME280;17400;52.392;9.750;2022-08-03T12:13:40;100833.91;;;30.52;43.29
30636;BME280;17400;52.392;9.750;2022-08-03T12:16:28;100831.56;;;30.80;42.31
30636;BME280;17400;52.392;9.750;2022-08-03T12:18:57;100829.88;;;31.05;42.17
30636;BME280;17400;52.392;9.750;2022-08-03T12:21:25;100829.47;;;31.24;42.65
30636;BME280;17400;52.392;9.750;2022-08-03T12:23:56;100833.69;;;31.39;41.35
30636;BME280;17400;52.392;9.750;2022-08-03T12:26:26;100828.69;;;31.54;41.78
30636;BME280;17400;52.392;9.750;2022-08-03T12:28:57;100832.75;;;31.74;40.52
30636;BME280;17400;52.392;9.750;2022-08-03T12:31:25;100838.94;;;31.80;39.12
30636;BME280;17400;52.392;9.750;2022-08-03T12:33:54;100824.56;;;31.90;38.89
30636;BME280;17400;52.392;9.750;2022-08-03T12:36:25;100826.06;;;31.87;39.09
30636;BME280;17400;52.392;9.750;2022-08-03T12:38:55;100831.38;;;32.01;38.15
30636;BME280;17400;52.392;9.750;2022-08-03T12:41:29;100826.06;;;32.09;38.08
30636;BME280;17400;52.392;9.750;2022-08-03T12:43:58;100822.84;;;31.98;37.65
30636;BME280;17400;52.392;9.750;2022-08-03T12:46:31;100829.22;;;31.86;38.70
30636;BME280;17400;52.392;9.750;2022-08-03T12:49:05;100830.66;;;31.62;38.29
30636;BME280;17400;52.392;9.750;2022-08-03T12:51:35;100823.69;;;31.68;38.98
30636;BME280;17400;52.392;9.750;2022-08-03T12:54:03;100827.81;;;31.92;39.27
30636;BME280;17400;52.392;9.750;2022-08-03T12:56:31;100830.97;;;32.12;39.07
30636;BME280;17400;52.392;9.750;2022-08-03T12:59:22;100819.53;;;32.04;38.98
30636;BME280;17400;52.392;9.750;2022-08-03T13:01:58;100814.75;;;32.26;38.92
30636;BME280;17400;52.392;9.750;2022-08-03T13:04:28;100818.34;;;32.48;38.51
30636;BME280;17400;52.392;9.750;2022-08-03T13:07:00;100815.31;;;32.53;37.57
30636;BME280;17400;52.392;9.750;2022-08-03T13:09:29;100803.13;;;32.36;37.86
30636;BME280;17400;52.392;9.750;2022-08-03T13:12:05;100798.28;;;32.03;38.76
30636;BME280;17400;52.392;9.750;2022-08-03T13:14:35;100807.47;;;31.83;39.35
30636;BME280;17400;52.392;9.750;2022-08-03T13:17:03;100820.69;;;31.73;39.67
30636;BME280;17400;52.392;9.750;2022-08-03T13:19:32;100813.88;;;31.62;39.67
30636;BME280;17400;52.392;9.750;2022-08-03T13:22:00;100815.66;;;31.88;39.08
30636;BME280;17400;52.392;9.750;2022-08-03T13:24:31;100809.31;;;31.79;39.96
30636;BME280;17400;52.392;9.750;2022-08-03T13:26:59;100813.16;;;31.74;39.54
30636;BME280;17400;52.392;9.750;2022-08-03T13:29:49;100810.56;;;31.90;38.75
30636;BME280;17400;52.392;9.750;2022-08-03T13:32:18;100812.63;;;32.02;38.88
30636;BME280;17400;52.392;9.750;2022-08-03T13:34:46;100805.41;;;32.22;37.63
30636;BME280;17400;52.392;9.750;2022-08-03T13:37:14;100807.47;;;32.46;37.96
30636;BME280;17400;52.392;9.750;2022-08-03T13:39:42;100798.78;;;32.60;37.32
30636;BME280;17400;52.392;9.750;2022-08-03T13:42:26;100784.63;;;32.78;37.34
30636;BME280;17400;52.392;9.750;2022-08-03T13:44:55;100792.81;;;32.83;36.68
30636;BME280;17400;52.392;9.750;2022-08-03T13:47:23;100791.53;;;32.93;36.59
30636;BME280;17400;52.392;9.750;2022-08-03T13:49:50;100788.28;;;33.03;35.66
30636;BME280;17400;52.392;9.750;2022-08-03T13:52:29;100783.72;;;33.11;34.94
30636;BME280;17400;52.392;9.750;2022-08-03T13:54:57;100784.56;;;33.24;32.01
30636;BME280;17400;52.392;9.750;2022-08-03T13:57:25;100782.22;;;33.38;31.87
30636;BME280;17400;52.392;9.750;2022-08-03T14:00:15;100785.50;;;33.52;32.27
30636;BME280;17400;52.392;9.750;2022-08-03T14:02:55;100776.34;;;33.68;32.50
30636;BME280;17400;52.392;9.750;2022-08-03T14:05:29;100777.63;;;33.70;32.00
30636;BME280;17400;52.392;9.750;2022-08-03T14:07:58;100786.78;;;33.80;33.00
30636;BME280;17400;52.392;9.750;2022-08-03T14:10:30;100780.06;;;33.97;32.11
30636;BME280;17400;52.392;9.750;2022-08-03T14:12:58;100771.94;;;34.08;32.07
30636;BME280;17400;52.392;9.750;2022-08-03T14:15:29;100777.44;;;34.16;33.58
30636;BME280;17400;52.392;9.750;2022-08-03T14:18:02;100772.44;;;33.97;32.57
30636;BME280;17400;52.392;9.750;2022-08-03T14:20:30;100765.16;;;34.09;32.92
30636;BME280;17400;52.392;9.750;2022-08-03T14:23:03;100770.38;;;34.22;33.16
30636;BME280;17400;52.392;9.750;2022-08-03T14:25:30;100768.72;;;34.34;32.70
30636;BME280;17400;52.392;9.750;2022-08-03T14:28:16;100765.91;;;34.34;32.52
30636;BME280;17400;52.392;9.750;2022-08-03T14:30:45;100766.31;;;34.64;32.08
30636;BME280;17400;52.392;9.750;2022-08-03T14:33:14;100774.25;;;34.75;32.53
30636;BME280;17400;52.392;9.750;2022-08-03T14:35:41;100764.91;;;34.70;32.08
30636;BME280;17400;52.392;9.750;2022-08-03T14:38:09;100765.88;;;34.78;31.91
30636;BME280;17400;52.392;9.750;2022-08-03T14:40:37;100764.25;;;34.77;31.52
30636;BME280;17400;52.392;9.750;2022-08-03T14:43:04;100762.59;;;34.60;32.42
30636;BME280;17400;52.392;9.750;2022-08-03T14:45:32;100759.69;;;34.85;31.64
30636;BME280;17400;52.392;9.750;2022-08-03T14:48:02;100758.22;;;34.91;32.36
30636;BME280;17400;52.392;9.750;2022-08-03T14:50:50;100753.09;;;34.81;31.70
30636;BME280;17400;52.392;9.750;2022-08-03T14:53:20;100755.84;;;34.93;31.47
30636;BME280;17400;52.392;9.750;2022-08-03T14:55:48;100759.56;;;35.13;30.88
30636;BME280;17400;52.392;9.750;2022-08-03T14:58:17;100751.38;;;35.24;31.95
30636;BME280;17400;52.392;9.750;2022-08-03T15:00:48;100748.31;;;35.13;31.25
30636;BME280;17400;52.392;9.750;2022-08-03T15:03:17;100738.75;;;35.18;31.23
30636;BME280;17400;52.392;9.750;2022-08-03T15:05:49;100747.31;;;35.06;31.87
30636;BME280;17400;52.392;9.750;2022-08-03T15:08:17;100744.59;;;34.93;31.80
30636;BME280;17400;52.392;9.750;2022-08-03T15:10:44;100740.91;;;34.89;31.93
30636;BME280;17400;52.392;9.750;2022-08-03T15:13:15;100735.34;;;34.93;31.61
30636;BME280;17400;52.392;9.750;2022-08-03T15:15:42;100739.88;;;34.97;32.11
30636;BME280;17400;52.392;9.750;2022-08-03T15:18:10;100727.28;;;34.91;31.98
30636;BME280;17400;52.392;9.750;2022-08-03T15:20:39;100730.59;;;34.81;32.29
30636;BME280;17400;52.392;9.750;2022-08-03T15:23:13;100729.97;;;34.87;32.40
30636;BME280;17400;52.392;9.750;2022-08-03T15:25:42;100727.75;;;34.93;32.50
30636;BME280;17400;52.392;9.750;2022-08-03T15:28:30;100727.91;;;35.00;32.60
30636;BME280;17400;52.392;9.750;2022-08-03T15:30:58;100730.97;;;34.95;32.21
30636;BME280;17400;52.392;9.750;2022-08-03T15:33:26;100723.63;;;34.75;32.23
30636;BME280;17400;52.392;9.750;2022-08-03T15:35:56;100726.69;;;34.53;32.61
30636;BME280;17400;52.392;9.750;2022-08-03T15:38:27;100728.16;;;34.19;32.81
30636;BME280;17400;52.392;9.750;2022-08-03T15:40:55;100724.72;;;33.97;33.12
30636;BME280;17400;52.392;9.750;2022-08-03T15:43:24;100721.84;;;33.81;33.79
30636;BME280;17400;52.392;9.750;2022-08-03T15:45:51;100724.19;;;33.67;34.19
30636;BME280;17400;52.392;9.750;2022-08-03T15:48:39;100730.31;;;33.57;34.22
30636;BME280;17400;52.392;9.750;2022-08-03T15:51:10;100727.06;;;33.42;35.18
30636;BME280;17400;52.392;9.750;2022-08-03T15:53:37;100718.28;;;33.31;34.42
30636;BME280;17400;52.392;9.750;2022-08-03T15:56:05;100713.41;;;33.28;34.68
30636;BME280;17400;52.392;9.750;2022-08-03T15:58:40;100724.81;;;33.23;34.96
30636;BME280;17400;52.392;9.750;2022-08-03T16:01:29;100717.72;;;33.13;35.71
30636;BME280;17400;52.392;9.750;2022-08-03T16:03:56;100717.09;;;33.08;35.38
30636;BME280;17400;52.392;9.750;2022-08-03T16:06:25;100715.50;;;33.07;35.33
30636;BME280;17400;52.392;9.750;2022-08-03T16:09:03;100717.38;;;33.02;35.60
30636;BME280;17400;52.392;9.750;2022-08-03T16:11:51;100718.28;;;32.94;35.48
30636;BME280;17400;52.392;9.750;2022-08-03T16:14:19;100724.09;;;32.89;35.86
30636;BME280;17400;52.392;9.750;2022-08-03T16:17:03;100711.97;;;32.85;35.87
30636;BME280;17400;52.392;9.750;2022-08-03T16:19:31;100718.63;;;32.80;35.79
30636;BME280;17400;52.392;9.750;2022-08-03T16:22:00;100724.59;;;32.79;35.97
30636;BME280;17400;52.392;9.750;2022-08-03T16:24:29;100721.84;;;32.70;36.48
30636;BME280;17400;52.392;9.750;2022-08-03T16:26:57;100718.09;;;32.66;36.08
30636;BME280;17400;52.392;9.750;2022-08-03T16:29:26;100718.34;;;32.61;36.27
30636;BME280;17400;52.392;9.750;2022-08-03T16:31:54;100722.28;;;32.60;36.78
30636;BME280;17400;52.392;9.750;2022-08-03T16:34:22;100729.88;;;32.59;36.62
30636;BME280;17400;52.392;9.750;2022-08-03T16:36:50;100722.50;;;32.54;37.00
30636;BME280;17400;52.392;9.750;2022-08-03T16:39:19;100718.31;;;32.48;37.14
30636;BME280;17400;52.392;9.750;2022-08-03T16:41:46;100717.25;;;32.41;37.08
30636;BME280;17400;52.392;9.750;2022-08-03T16:44:27;100716.31;;;32.36;36.96
30636;BME280;17400;52.392;9.750;2022-08-03T16:46:55;100708.56;;;32.33;36.66
30636;BME280;17400;52.392;9.750;2022-08-03T16:49:23;100720.59;;;32.34;37.13
30636;BME280;17400;52.392;9.750;2022-08-03T16:52:13;100714.16;;;32.33;37.18
30636;BME280;17400;52.392;9.750;2022-08-03T16:54:45;100715.22;;;32.29;36.97
30636;BME280;17400;52.392;9.750;2022-08-03T16:57:18;100723.03;;;32.23;37.33
30636;BME280;17400;52.392;9.750;2022-08-03T17:00:09;100718.44;;;32.18;36.64
30636;BME280;17400;52.392;9.750;2022-08-03T17:02:40;100723.06;;;32.14;37.23
30636;BME280;17400;52.392;9.750;2022-08-03T17:05:14;100720.47;;;32.09;37.42
30636;BME280;17400;52.392;9.750;2022-08-03T17:07:44;100716.25;;;32.03;37.62
30636;BME280;17400;52.392;9.750;2022-08-03T17:10:21;100721.75;;;31.99;37.50
30636;BME280;17400;52.392;9.750;2022-08-03T17:12:52;100720.09;;;31.98;37.84
30636;BME280;17400;52.392;9.750;2022-08-03T17:15:20;100723.25;;;31.97;37.89
30636;BME280;17400;52.392;9.750;2022-08-03T17:18:09;100720.31;;;31.93;38.34